sensor_id;sensor_type;location;lat;lon;timestamp;P1;durP1;ratioP1;P2;durP2;ratioP2
54641;SDS011;40536;53.194;5.728;2023-05-17T00:02:08;26.27;;;8.02;;
54641;SDS011;40536;53.194;5.728;2023-05-17T00:04:33;18.88;;;7.80;;
54641;SDS011;40536;53.194;5.728;2023-05-17T00:06:59;20.65;;;8.63;;
54641;SDS011;40536;53.194;5.728;2023-05-17T00:09:25;16.67;;;8.05;;
54641;SDS011;40536;53.194;5.728;2023-05-17T00:11:51;22.92;;;9.23;;
54641;SDS011;40536;53.194;5.728;2023-05-17T00:14:17;19.55;;;8.07;;
54641;SDS011;40536;53.194;5.728;2023-05-17T00:16:42;26.73;;;8.40;;
54641;SDS011;40536;53.194;5.728;2023-05-17T00:19:08;21.08;;;6.63;;
54641;SDS011;40536;53.194;5.728;2023-05-17T00:21:34;23.40;;;7.35;;
54641;SDS011;40536;53.194;5.728;2023-05-17T00:24:00;20.83;;;7.97;;
54641;SDS011;40536;53.194;5.728;2023-05-17T00:26:25;16.88;;;7.15;;
54641;SDS011;40536;53.194;5.728;2023-05-17T00:28:51;19.42;;;6.78;;
54641;SDS011;40536;53.194;5.728;2023-05-17T00:31:17;18.85;;;7.40;;
54641;SDS011;40536;53.194;5.728;2023-05-17T00:33:42;22.27;;;7.35;;
54641;SDS011;40536;53.194;5.728;2023-05-17T00:36:08;14.40;;;6.57;;
54641;SDS011;40536;53.194;5.728;2023-05-17T00:38:34;20.45;;;6.90;;
54641;SDS011;40536;53.194;5.728;2023-05-17T00:40:59;20.55;;;6.15;;
54641;SDS011;40536;53.194;5.728;2023-05-17T00:43:25;20.17;;;8.98;;
54641;SDS011;40536;53.194;5.728;2023-05-17T00:45:51;16.17;;;6.90;;
54641;SDS011;40536;53.194;5.728;2023-05-17T00:48:17;14.95;;;6.60;;
54641;SDS011;40536;53.194;5.728;2023-05-17T00:50:49;17.98;;;6.97;;
54641;SDS011;40536;53.194;5.728;2023-05-17T00:53:16;15.93;;;6.80;;
54641;SDS011;40536;53.194;5.728;2023-05-17T00:55:42;18.50;;;7.05;;
54641;SDS011;40536;53.194;5.728;2023-05-17T00:58:09;17.58;;;6.85;;
54641;SDS011;40536;53.194;5.728;2023-05-17T01:00:36;19.23;;;7.22;;
54641;SDS011;40536;53.194;5.728;2023-05-17T01:03:01;17.50;;;7.93;;
54641;SDS011;40536;53.194;5.728;2023-05-17T01:05:27;22.70;;;8.40;;
54641;SDS011;40536;53.194;5.728;2023-05-17T01:07:54;17.00;;;7.28;;
54641;SDS011;40536;53.194;5.728;2023-05-17T01:10:19;19.95;;;7.45;;
54641;SDS011;40536;53.194;5.728;2023-05-17T01:15:47;15.02;;;8.35;;
54641;SDS011;40536;53.194;5.728;2023-05-17T01:18:22;13.15;;;8.50;;
54641;SDS011;40536;53.194;5.728;2023-05-17T01:20:55;21.88;;;8.98;;
54641;SDS011;40536;53.194;5.728;2023-05-17T01:28:46;19.37;;;9.37;;
54641;SDS011;40536;53.194;5.728;2023-05-17T01:31:16;25.20;;;9.27;;
54641;SDS011;40536;53.194;5.728;2023-05-17T01:33:43;24.63;;;10.90;;
54641;SDS011;40536;53.194;5.728;2023-05-17T01:36:08;18.98;;;10.40;;
54641;SDS011;40536;53.194;5.728;2023-05-17T01:38:34;25.02;;;10.25;;
54641;SDS011;40536;53.194;5.728;2023-05-17T01:44:02;22.20;;;8.30;;
54641;SDS011;40536;53.194;5.728;2023-05-17T01:46:40;17.95;;;6.75;;
54641;SDS011;40536;53.194;5.728;2023-05-17T01:49:15;15.75;;;6.45;;
54641;SDS011;40536;53.194;5.728;2023-05-17T01:51:47;19.02;;;5.55;;
54641;SDS011;40536;53.194;5.728;2023-05-17T01:56:47;14.20;;;6.38;;
54641;SDS011;40536;53.194;5.728;2023-05-17T02:01:49;11.90;;;5.97;;
54641;SDS011;40536;53.194;5.728;2023-05-17T02:04:21;15.37;;;6.47;;
54641;SDS011;40536;53.194;5.728;2023-05-17T02:06:46;12.45;;;6.28;;
54641;SDS011;40536;53.194;5.728;2023-05-17T02:09:12;13.85;;;7.00;;
54641;SDS011;40536;53.194;5.728;2023-05-17T02:11:38;14.18;;;5.82;;
54641;SDS011;40536;53.194;5.728;2023-05-17T02:14:03;12.63;;;5.63;;
54641;SDS011;40536;53.194;5.728;2023-05-17T02:16:29;15.20;;;5.70;;
54641;SDS011;40536;53.194;5.728;2023-05-17T02:18:55;16.35;;;7.28;;
54641;SDS011;40536;53.194;5.728;2023-05-17T02:21:20;12.57;;;5.78;;
54641;SDS011;40536;53.194;5.728;2023-05-17T02:23:46;12.07;;;5.90;;
54641;SDS011;40536;53.194;5.728;2023-05-17T02:26:11;13.32;;;5.70;;
54641;SDS011;40536;53.194;5.728;2023-05-17T02:28:37;16.05;;;6.90;;
54641;SDS011;40536;53.194;5.728;2023-05-17T02:31:03;12.25;;;5.55;;
54641;SDS011;40536;53.194;5.728;2023-05-17T02:33:28;14.55;;;6.00;;
54641;SDS011;40536;53.194;5.728;2023-05-17T02:35:54;17.33;;;6.38;;
54641;SDS011;40536;53.194;5.728;2023-05-17T02:38:20;17.27;;;6.70;;
54641;SDS011;40536;53.194;5.728;2023-05-17T02:40:45;16.95;;;7.78;;
54641;SDS011;40536;53.194;5.728;2023-05-17T02:43:11;13.40;;;6.13;;
54641;SDS011;40536;53.194;5.728;2023-05-17T02:45:37;22.20;;;7.57;;
54641;SDS011;40536;53.194;5.728;2023-05-17T02:48:02;13.00;;;6.00;;
54641;SDS011;40536;53.194;5.728;2023-05-17T02:50:28;12.10;;;5.80;;
54641;SDS011;40536;53.194;5.728;2023-05-17T02:52:54;12.90;;;5.80;;
54641;SDS011;40536;53.194;5.728;2023-05-17T02:55:19;12.93;;;6.13;;
54641;SDS011;40536;53.194;5.728;2023-05-17T02:57:45;17.38;;;6.45;;
54641;SDS011;40536;53.194;5.728;2023-05-17T03:00:11;13.20;;;5.63;;
54641;SDS011;40536;53.194;5.728;2023-05-17T03:02:37;15.15;;;5.22;;
54641;SDS011;40536;53.194;5.728;2023-05-17T03:05:02;11.95;;;4.88;;
54641;SDS011;40536;53.194;5.728;2023-05-17T03:07:28;12.68;;;5.68;;
54641;SDS011;40536;53.194;5.728;2023-05-17T03:09:54;10.70;;;5.10;;
54641;SDS011;40536;53.194;5.728;2023-05-17T03:12:20;12.23;;;5.22;;
54641;SDS011;40536;53.194;5.728;2023-05-17T03:14:46;13.93;;;5.53;;
54641;SDS011;40536;53.194;5.728;2023-05-17T03:17:11;16.15;;;5.50;;
54641;SDS011;40536;53.194;5.728;2023-05-17T03:19:37;17.25;;;5.57;;
54641;SDS011;40536;53.194;5.728;2023-05-17T03:22:02;11.43;;;5.00;;
54641;SDS011;40536;53.194;5.728;2023-05-17T03:24:28;11.48;;;5.45;;
54641;SDS011;40536;53.194;5.728;2023-05-17T03:26:54;10.10;;;5.57;;
54641;SDS011;40536;53.194;5.728;2023-05-17T03:29:19;9.40;;;5.10;;
54641;SDS011;40536;53.194;5.728;2023-05-17T03:31:45;14.52;;;5.78;;
54641;SDS011;40536;53.194;5.728;2023-05-17T03:34:11;9.55;;;5.45;;
54641;SDS011;40536;53.194;5.728;2023-05-17T03:36:37;8.93;;;5.18;;
54641;SDS011;40536;53.194;5.728;2023-05-17T03:39:06;9.82;;;6.03;;
54641;SDS011;40536;53.194;5.728;2023-05-17T03:41:31;13.55;;;5.50;;
54641;SDS011;40536;53.194;5.728;2023-05-17T03:43:57;8.02;;;5.68;;
54641;SDS011;40536;53.194;5.728;2023-05-17T03:46:23;13.10;;;5.57;;
54641;SDS011;40536;53.194;5.728;2023-05-17T03:48:49;12.80;;;6.38;;
54641;SDS011;40536;53.194;5.728;2023-05-17T03:51:15;12.27;;;5.85;;
54641;SDS011;40536;53.194;5.728;2023-05-17T03:53:41;12.30;;;5.30;;
54641;SDS011;40536;53.194;5.728;2023-05-17T03:56:07;10.55;;;5.13;;
54641;SDS011;40536;53.194;5.728;2023-05-17T03:58:34;9.63;;;5.30;;
54641;SDS011;40536;53.194;5.728;2023-05-17T04:00:59;8.73;;;5.57;;
54641;SDS011;40536;53.194;5.728;2023-05-17T04:03:25;10.32;;;5.53;;
54641;SDS011;40536;53.194;5.728;2023-05-17T04:05:51;15.32;;;6.45;;
54641;SDS011;40536;53.194;5.728;2023-05-17T04:08:16;8.35;;;5.68;;
54641;SDS011;40536;53.194;5.728;2023-05-17T04:10:42;10.88;;;5.22;;
54641;SDS011;40536;53.194;5.728;2023-05-17T04:13:08;9.15;;;5.90;;
54641;SDS011;40536;53.194;5.728;2023-05-17T04:15:34;13.52;;;6.32;;
54641;SDS011;40536;53.194;5.728;2023-05-17T04:18:00;8.82;;;5.40;;
54641;SDS011;40536;53.194;5.728;2023-05-17T04:20:26;7.72;;;5.57;;
54641;SDS011;40536;53.194;5.728;2023-05-17T04:22:51;11.45;;;5.93;;
54641;SDS011;40536;53.194;5.728;2023-05-17T04:25:17;11.45;;;5.50;;
54641;SDS011;40536;53.194;5.728;2023-05-17T04:27:46;15.70;;;6.13;;
54641;SDS011;40536;53.194;5.728;2023-05-17T04:30:12;9.95;;;5.68;;
54641;SDS011;40536;53.194;5.728;2023-05-17T04:32:38;10.35;;;6.05;;
54641;SDS011;40536;53.194;5.728;2023-05-17T04:35:04;10.05;;;6.03;;
54641;SDS011;40536;53.194;5.728;2023-05-17T04:37:29;9.38;;;5.55;;
54641;SDS011;40536;53.194;5.728;2023-05-17T04:39:55;10.38;;;7.05;;
54641;SDS011;40536;53.194;5.728;2023-05-17T04:42:23;12.18;;;6.00;;
54641;SDS011;40536;53.194;5.728;2023-05-17T04:44:48;11.05;;;6.22;;
54641;SDS011;40536;53.194;5.728;2023-05-17T04:47:14;11.50;;;6.43;;
54641;SDS011;40536;53.194;5.728;2023-05-17T04:49:40;11.85;;;6.50;;
54641;SDS011;40536;53.194;5.728;2023-05-17T04:52:05;11.95;;;7.25;;
54641;SDS011;40536;53.194;5.728;2023-05-17T04:54:31;17.20;;;6.45;;
54641;SDS011;40536;53.194;5.728;2023-05-17T04:56:57;13.73;;;7.20;;
54641;SDS011;40536;53.194;5.728;2023-05-17T04:59:22;11.98;;;6.78;;
54641;SDS011;40536;53.194;5.728;2023-05-17T05:01:48;10.45;;;6.70;;
54641;SDS011;40536;53.194;5.728;2023-05-17T05:04:13;10.32;;;6.90;;
54641;SDS011;40536;53.194;5.728;2023-05-17T05:06:39;11.30;;;6.85;;
54641;SDS011;40536;53.194;5.728;2023-05-17T05:09:05;9.15;;;5.90;;
54641;SDS011;40536;53.194;5.728;2023-05-17T05:11:31;12.00;;;6.75;;
54641;SDS011;40536;53.194;5.728;2023-05-17T05:13:56;10.68;;;5.97;;
54641;SDS011;40536;53.194;5.728;2023-05-17T05:16:25;16.20;;;6.38;;
54641;SDS011;40536;53.194;5.728;2023-05-17T05:18:51;12.30;;;6.40;;
54641;SDS011;40536;53.194;5.728;2023-05-17T05:21:17;12.38;;;6.55;;
54641;SDS011;40536;53.194;5.728;2023-05-17T05:23:42;11.68;;;7.50;;
54641;SDS011;40536;53.194;5.728;2023-05-17T05:26:08;11.35;;;6.93;;
54641;SDS011;40536;53.194;5.728;2023-05-17T05:28:33;13.15;;;5.97;;
54641;SDS011;40536;53.194;5.728;2023-05-17T05:31:00;13.13;;;6.30;;
54641;SDS011;40536;53.194;5.728;2023-05-17T05:33:25;11.50;;;6.22;;
54641;SDS011;40536;53.194;5.728;2023-05-17T05:35:51;14.35;;;6.82;;
54641;SDS011;40536;53.194;5.728;2023-05-17T05:38:17;13.65;;;7.07;;
54641;SDS011;40536;53.194;5.728;2023-05-17T05:40:44;14.23;;;7.60;;
54641;SDS011;40536;53.194;5.728;2023-05-17T05:43:12;13.50;;;6.45;;
54641;SDS011;40536;53.194;5.728;2023-05-17T05:45:37;15.07;;;7.00;;
54641;SDS011;40536;53.194;5.728;2023-05-17T05:48:09;14.75;;;6.78;;
54641;SDS011;40536;53.194;5.728;2023-05-17T05:50:38;13.10;;;6.30;;
54641;SDS011;40536;53.194;5.728;2023-05-17T05:53:07;14.38;;;7.07;;
54641;SDS011;40536;53.194;5.728;2023-05-17T05:55:33;16.00;;;7.47;;
54641;SDS011;40536;53.194;5.728;2023-05-17T05:57:58;14.02;;;7.90;;
54641;SDS011;40536;53.194;5.728;2023-05-17T06:00:24;19.23;;;7.20;;
54641;SDS011;40536;53.194;5.728;2023-05-17T06:02:50;15.68;;;6.93;;
54641;SDS011;40536;53.194;5.728;2023-05-17T06:05:17;15.27;;;7.20;;
54641;SDS011;40536;53.194;5.728;2023-05-17T06:07:43;16.58;;;7.20;;
54641;SDS011;40536;53.194;5.728;2023-05-17T06:10:09;12.93;;;7.28;;
54641;SDS011;40536;53.194;5.728;2023-05-17T06:12:35;16.98;;;7.53;;
54641;SDS011;40536;53.194;5.728;2023-05-17T06:15:01;10.95;;;6.35;;
54641;SDS011;40536;53.194;5.728;2023-05-17T06:17:27;19.05;;;6.97;;
54641;SDS011;40536;53.194;5.728;2023-05-17T06:19:53;10.98;;;5.40;;
54641;SDS011;40536;53.194;5.728;2023-05-17T06:22:19;14.45;;;5.80;;
54641;SDS011;40536;53.194;5.728;2023-05-17T06:24:44;13.95;;;5.43;;
54641;SDS011;40536;53.194;5.728;2023-05-17T06:27:16;18.95;;;5.35;;
54641;SDS011;40536;53.194;5.728;2023-05-17T06:29:42;15.60;;;5.80;;
54641;SDS011;40536;53.194;5.728;2023-05-17T06:32:07;11.73;;;5.20;;
54641;SDS011;40536;53.194;5.728;2023-05-17T06:34:33;14.45;;;5.90;;
54641;SDS011;40536;53.194;5.728;2023-05-17T06:36:59;22.85;;;6.25;;
54641;SDS011;40536;53.194;5.728;2023-05-17T06:39:24;14.90;;;5.63;;
54641;SDS011;40536;53.194;5.728;2023-05-17T06:41:50;13.35;;;5.88;;
54641;SDS011;40536;53.194;5.728;2023-05-17T06:44:15;14.43;;;5.03;;
54641;SDS011;40536;53.194;5.728;2023-05-17T06:46:41;11.20;;;4.60;;
54641;SDS011;40536;53.194;5.728;2023-05-17T06:49:07;17.75;;;5.53;;
54641;SDS011;40536;53.194;5.728;2023-05-17T06:51:32;13.02;;;5.50;;
54641;SDS011;40536;53.194;5.728;2023-05-17T06:53:58;12.38;;;5.03;;
54641;SDS011;40536;53.194;5.728;2023-05-17T06:56:24;13.65;;;5.15;;
54641;SDS011;40536;53.194;5.728;2023-05-17T06:58:49;16.95;;;4.95;;
54641;SDS011;40536;53.194;5.728;2023-05-17T07:01:15;9.73;;;4.15;;
54641;SDS011;40536;53.194;5.728;2023-05-17T07:03:41;14.00;;;5.20;;
54641;SDS011;40536;53.194;5.728;2023-05-17T07:06:07;16.95;;;5.80;;
54641;SDS011;40536;53.194;5.728;2023-05-17T07:08:32;12.35;;;4.50;;
54641;SDS011;40536;53.194;5.728;2023-05-17T07:10:58;21.42;;;5.82;;
54641;SDS011;40536;53.194;5.728;2023-05-17T07:13:24;14.57;;;5.10;;
54641;SDS011;40536;53.194;5.728;2023-05-17T07:15:49;9.68;;;4.03;;
54641;SDS011;40536;53.194;5.728;2023-05-17T07:18:15;12.48;;;4.97;;
54641;SDS011;40536;53.194;5.728;2023-05-17T07:20:41;9.15;;;4.43;;
54641;SDS011;40536;53.194;5.728;2023-05-17T07:23:06;12.95;;;4.35;;
54641;SDS011;40536;53.194;5.728;2023-05-17T07:25:32;19.92;;;5.43;;
54641;SDS011;40536;53.194;5.728;2023-05-17T07:27:59;14.32;;;4.90;;
54641;SDS011;40536;53.194;5.728;2023-05-17T07:30:25;13.88;;;5.03;;
54641;SDS011;40536;53.194;5.728;2023-05-17T07:32:51;11.02;;;4.57;;
54641;SDS011;40536;53.194;5.728;2023-05-17T07:35:16;12.65;;;4.70;;
54641;SDS011;40536;53.194;5.728;2023-05-17T07:37:42;13.73;;;4.47;;
54641;SDS011;40536;53.194;5.728;2023-05-17T07:40:07;10.15;;;4.78;;
54641;SDS011;40536;53.194;5.728;2023-05-17T07:42:34;10.75;;;4.88;;
54641;SDS011;40536;53.194;5.728;2023-05-17T07:44:59;8.45;;;4.32;;
54641;SDS011;40536;53.194;5.728;2023-05-17T07:47:25;10.48;;;4.80;;
54641;SDS011;40536;53.194;5.728;2023-05-17T07:49:50;14.82;;;5.40;;
54641;SDS011;40536;53.194;5.728;2023-05-17T07:52:16;10.15;;;4.68;;
54641;SDS011;40536;53.194;5.728;2023-05-17T07:54:42;8.73;;;4.90;;
54641;SDS011;40536;53.194;5.728;2023-05-17T07:57:07;16.77;;;5.45;;
54641;SDS011;40536;53.194;5.728;2023-05-17T07:59:33;13.68;;;5.22;;
54641;SDS011;40536;53.194;5.728;2023-05-17T08:01:59;12.27;;;5.22;;
54641;SDS011;40536;53.194;5.728;2023-05-17T08:04:25;11.90;;;5.00;;
54641;SDS011;40536;53.194;5.728;2023-05-17T08:06:51;14.10;;;5.78;;
54641;SDS011;40536;53.194;5.728;2023-05-17T08:09:19;11.10;;;5.40;;
54641;SDS011;40536;53.194;5.728;2023-05-17T08:11:45;14.23;;;6.47;;
54641;SDS011;40536;53.194;5.728;2023-05-17T08:14:14;11.40;;;5.30;;
54641;SDS011;40536;53.194;5.728;2023-05-17T08:16:41;14.02;;;5.63;;
54641;SDS011;40536;53.194;5.728;2023-05-17T08:19:09;16.45;;;6.15;;
54641;SDS011;40536;53.194;5.728;2023-05-17T08:21:37;12.00;;;5.68;;
54641;SDS011;40536;53.194;5.728;2023-05-17T08:24:03;13.93;;;5.45;;
54641;SDS011;40536;53.194;5.728;2023-05-17T08:26:29;11.52;;;5.25;;
54641;SDS011;40536;53.194;5.728;2023-05-17T08:28:55;14.23;;;5.68;;
54641;SDS011;40536;53.194;5.728;2023-05-17T08:31:20;14.15;;;6.13;;
54641;SDS011;40536;53.194;5.728;2023-05-17T08:33:46;13.35;;;5.10;;
54641;SDS011;40536;53.194;5.728;2023-05-17T08:36:11;16.10;;;5.72;;
54641;SDS011;40536;53.194;5.728;2023-05-17T08:38:37;16.00;;;5.20;;
54641;SDS011;40536;53.194;5.728;2023-05-17T08:41:03;13.93;;;5.40;;
54641;SDS011;40536;53.194;5.728;2023-05-17T08:43:28;15.27;;;4.85;;
54641;SDS011;40536;53.194;5.728;2023-05-17T08:45:57;12.60;;;5.43;;
54641;SDS011;40536;53.194;5.728;2023-05-17T08:48:24;12.88;;;5.38;;
54641;SDS011;40536;53.194;5.728;2023-05-17T08:50:51;11.98;;;4.63;;
54641;SDS011;40536;53.194;5.728;2023-05-17T08:53:20;14.80;;;5.00;;
54641;SDS011;40536;53.194;5.728;2023-05-17T08:55:46;11.75;;;4.95;;
54641;SDS011;40536;53.194;5.728;2023-05-17T08:58:14;16.55;;;4.53;;
54641;SDS011;40536;53.194;5.728;2023-05-17T09:00:43;13.15;;;5.47;;
54641;SDS011;40536;53.194;5.728;2023-05-17T09:03:12;10.27;;;4.97;;
54641;SDS011;40536;53.194;5.728;2023-05-17T09:05:42;16.83;;;5.07;;
54641;SDS011;40536;53.194;5.728;2023-05-17T09:08:08;13.18;;;5.45;;
54641;SDS011;40536;53.194;5.728;2023-05-17T09:10:38;11.07;;;4.90;;
54641;SDS011;40536;53.194;5.728;2023-05-17T09:13:05;11.85;;;5.10;;
54641;SDS011;40536;53.194;5.728;2023-05-17T09:15:31;9.45;;;5.10;;
54641;SDS011;40536;53.194;5.728;2023-05-17T09:17:58;10.05;;;5.03;;
54641;SDS011;40536;53.194;5.728;2023-05-17T09:20:25;8.77;;;4.65;;
54641;SDS011;40536;53.194;5.728;2023-05-17T09:23:01;9.30;;;4.40;;
54641;SDS011;40536;53.194;5.728;2023-05-17T09:25:31;13.13;;;4.88;;
54641;SDS011;40536;53.194;5.728;2023-05-17T09:28:01;10.48;;;5.18;;
54641;SDS011;40536;53.194;5.728;2023-05-17T09:30:29;7.80;;;4.53;;
54641;SDS011;40536;53.194;5.728;2023-05-17T09:33:08;11.85;;;5.47;;
54641;SDS011;40536;53.194;5.728;2023-05-17T09:35:35;10.73;;;4.68;;
54641;SDS011;40536;53.194;5.728;2023-05-17T09:38:05;12.38;;;5.45;;
54641;SDS011;40536;53.194;5.728;2023-05-17T09:40:39;8.65;;;5.28;;
54641;SDS011;40536;53.194;5.728;2023-05-17T09:43:06;13.98;;;5.38;;
54641;SDS011;40536;53.194;5.728;2023-05-17T09:45:32;15.13;;;5.38;;
54641;SDS011;40536;53.194;5.728;2023-05-17T09:48:15;11.77;;;4.80;;
54641;SDS011;40536;53.194;5.728;2023-05-17T09:55:56;10.75;;;5.30;;
54641;SDS011;40536;53.194;5.728;2023-05-17T09:58:24;13.07;;;6.18;;
54641;SDS011;40536;53.194;5.728;2023-05-17T10:01:00;11.48;;;5.03;;
54641;SDS011;40536;53.194;5.728;2023-05-17T10:03:37;8.88;;;5.00;;
54641;SDS011;40536;53.194;5.728;2023-05-17T10:06:06;10.30;;;5.28;;
54641;SDS011;40536;53.194;5.728;2023-05-17T10:08:34;9.75;;;5.43;;
54641;SDS011;40536;53.194;5.728;2023-05-17T10:11:09;10.07;;;5.30;;
54641;SDS011;40536;53.194;5.728;2023-05-17T10:14:22;9.80;;;5.30;;
54641;SDS011;40536;53.194;5.728;2023-05-17T10:16:31;7.28;;;4.88;;
54641;SDS011;40536;53.194;5.728;2023-05-17T10:18:58;13.95;;;5.22;;
54641;SDS011;40536;53.194;5.728;2023-05-17T10:21:27;11.40;;;5.13;;
54641;SDS011;40536;53.194;5.728;2023-05-17T10:23:55;11.13;;;5.03;;
54641;SDS011;40536;53.194;5.728;2023-05-17T10:26:26;14.32;;;5.30;;
54641;SDS011;40536;53.194;5.728;2023-05-17T10:28:59;11.38;;;5.43;;
54641;SDS011;40536;53.194;5.728;2023-05-17T10:31:26;13.90;;;5.35;;
54641;SDS011;40536;53.194;5.728;2023-05-17T10:33:54;14.63;;;5.88;;
54641;SDS011;40536;53.194;5.728;2023-05-17T10:36:19;10.27;;;5.10;;
54641;SDS011;40536;53.194;5.728;2023-05-17T10:38:47;13.32;;;5.45;;
54641;SDS011;40536;53.194;5.728;2023-05-17T10:41:13;12.95;;;5.30;;
54641;SDS011;40536;53.194;5.728;2023-05-17T10:43:42;12.45;;;5.05;;
54641;SDS011;40536;53.194;5.728;2023-05-17T10:46:14;12.52;;;6.00;;
54641;SDS011;40536;53.194;5.728;2023-05-17T10:48:40;17.30;;;5.38;;
54641;SDS011;40536;53.194;5.728;2023-05-17T10:51:07;12.10;;;5.72;;
54641;SDS011;40536;53.194;5.728;2023-05-17T10:54:02;11.93;;;5.55;;
54641;SDS011;40536;53.194;5.728;2023-05-17T10:56:40;11.15;;;5.65;;
54641;SDS011;40536;53.194;5.728;2023-05-17T10:59:18;12.55;;;5.65;;
54641;SDS011;40536;53.194;5.728;2023-05-17T11:02:03;13.45;;;5.88;;
54641;SDS011;40536;53.194;5.728;2023-05-17T11:09:45;14.05;;;5.80;;
54641;SDS011;40536;53.194;5.728;2023-05-17T11:12:15;15.07;;;6.13;;
54641;SDS011;40536;53.194;5.728;2023-05-17T11:17:13;11.43;;;5.97;;
54641;SDS011;40536;53.194;5.728;2023-05-17T11:22:24;18.52;;;6.63;;
54641;SDS011;40536;53.194;5.728;2023-05-17T11:24:52;10.75;;;5.70;;
54641;SDS011;40536;53.194;5.728;2023-05-17T11:27:20;12.43;;;6.45;;
54641;SDS011;40536;53.194;5.728;2023-05-17T11:29:51;13.57;;;5.95;;
54641;SDS011;40536;53.194;5.728;2023-05-17T11:32:24;13.80;;;5.07;;
54641;SDS011;40536;53.194;5.728;2023-05-17T11:34:55;12.30;;;5.20;;
54641;SDS011;40536;53.194;5.728;2023-05-17T11:37:24;12.80;;;5.32;;
54641;SDS011;40536;53.194;5.728;2023-05-17T11:40:01;11.38;;;5.53;;
54641;SDS011;40536;53.194;5.728;2023-05-17T11:42:29;12.95;;;5.50;;
54641;SDS011;40536;53.194;5.728;2023-05-17T11:44:58;9.85;;;5.30;;
54641;SDS011;40536;53.194;5.728;2023-05-17T11:47:25;8.90;;;5.10;;
54641;SDS011;40536;53.194;5.728;2023-05-17T11:49:52;12.10;;;5.30;;
54641;SDS011;40536;53.194;5.728;2023-05-17T11:52:19;9.45;;;5.32;;
54641;SDS011;40536;53.194;5.728;2023-05-17T11:54:45;11.65;;;5.00;;
54641;SDS011;40536;53.194;5.728;2023-05-17T11:57:13;12.82;;;5.38;;
54641;SDS011;40536;53.194;5.728;2023-05-17T11:59:41;14.30;;;5.50;;
54641;SDS011;40536;53.194;5.728;2023-05-17T12:02:07;13.43;;;5.75;;
54641;SDS011;40536;53.194;5.728;2023-05-17T12:04:36;9.07;;;5.38;;
54641;SDS011;40536;53.194;5.728;2023-05-17T12:07:03;10.75;;;4.95;;
54641;SDS011;40536;53.194;5.728;2023-05-17T12:09:29;10.48;;;5.20;;
54641;SDS011;40536;53.194;5.728;2023-05-17T12:11:55;12.27;;;5.18;;
54641;SDS011;40536;53.194;5.728;2023-05-17T12:14:22;9.32;;;4.97;;
54641;SDS011;40536;53.194;5.728;2023-05-17T12:16:52;10.82;;;4.70;;
54641;SDS011;40536;53.194;5.728;2023-05-17T12:19:21;13.40;;;6.07;;
54641;SDS011;40536;53.194;5.728;2023-05-17T12:21:49;10.27;;;4.90;;
54641;SDS011;40536;53.194;5.728;2023-05-17T12:24:14;9.00;;;4.70;;
54641;SDS011;40536;53.194;5.728;2023-05-17T12:26:44;11.57;;;5.35;;
54641;SDS011;40536;53.194;5.728;2023-05-17T12:29:10;14.77;;;5.18;;
54641;SDS011;40536;53.194;5.728;2023-05-17T12:31:56;9.65;;;4.90;;
54641;SDS011;40536;53.194;5.728;2023-05-17T12:34:23;7.13;;;4.47;;
54641;SDS011;40536;53.194;5.728;2023-05-17T12:36:49;13.02;;;4.75;;
54641;SDS011;40536;53.194;5.728;2023-05-17T12:39:16;10.57;;;4.70;;
54641;SDS011;40536;53.194;5.728;2023-05-17T12:41:47;11.27;;;4.70;;
54641;SDS011;40536;53.194;5.728;2023-05-17T12:44:15;9.13;;;4.93;;
54641;SDS011;40536;53.194;5.728;2023-05-17T12:46:41;9.15;;;4.85;;
54641;SDS011;40536;53.194;5.728;2023-05-17T12:49:08;10.82;;;4.68;;
54641;SDS011;40536;53.194;5.728;2023-05-17T12:51:42;9.18;;;4.45;;
54641;SDS011;40536;53.194;5.728;2023-05-17T12:54:11;10.43;;;4.38;;
54641;SDS011;40536;53.194;5.728;2023-05-17T12:56:40;9.02;;;4.78;;
54641;SDS011;40536;53.194;5.728;2023-05-17T13:01:48;12.20;;;4.80;;
54641;SDS011;40536;53.194;5.728;2023-05-17T13:04:19;9.02;;;4.40;;
54641;SDS011;40536;53.194;5.728;2023-05-17T13:06:53;7.70;;;4.95;;
54641;SDS011;40536;53.194;5.728;2023-05-17T13:09:21;10.98;;;4.80;;
54641;SDS011;40536;53.194;5.728;2023-05-17T13:11:52;7.85;;;4.65;;
54641;SDS011;40536;53.194;5.728;2023-05-17T13:14:43;10.43;;;4.20;;
54641;SDS011;40536;53.194;5.728;2023-05-17T13:17:11;8.15;;;4.30;;
54641;SDS011;40536;53.194;5.728;2023-05-17T13:19:41;8.35;;;4.60;;
54641;SDS011;40536;53.194;5.728;2023-05-17T13:22:07;8.05;;;4.53;;
54641;SDS011;40536;53.194;5.728;2023-05-17T13:24:33;7.43;;;4.35;;
54641;SDS011;40536;53.194;5.728;2023-05-17T13:27:00;9.15;;;4.65;;
54641;SDS011;40536;53.194;5.728;2023-05-17T13:29:27;12.27;;;4.82;;
54641;SDS011;40536;53.194;5.728;2023-05-17T13:31:54;8.10;;;4.47;;
54641;SDS011;40536;53.194;5.728;2023-05-17T13:34:20;8.63;;;4.70;;
54641;SDS011;40536;53.194;5.728;2023-05-17T13:36:45;6.70;;;4.20;;
54641;SDS011;40536;53.194;5.728;2023-05-17T13:39:12;11.77;;;4.28;;
54641;SDS011;40536;53.194;5.728;2023-05-17T13:41:38;8.45;;;4.20;;
54641;SDS011;40536;53.194;5.728;2023-05-17T13:44:04;9.98;;;4.40;;
54641;SDS011;40536;53.194;5.728;2023-05-17T13:46:31;8.48;;;4.43;;
54641;SDS011;40536;53.194;5.728;2023-05-17T13:48:56;7.53;;;4.43;;
54641;SDS011;40536;53.194;5.728;2023-05-17T13:51:22;22.92;;;8.40;;
54641;SDS011;40536;53.194;5.728;2023-05-17T13:53:49;11.07;;;4.72;;
54641;SDS011;40536;53.194;5.728;2023-05-17T13:56:15;7.63;;;4.45;;
54641;SDS011;40536;53.194;5.728;2023-05-17T13:58:41;14.43;;;6.18;;
54641;SDS011;40536;53.194;5.728;2023-05-17T14:01:07;12.32;;;5.22;;
54641;SDS011;40536;53.194;5.728;2023-05-17T14:03:33;8.50;;;4.30;;
54641;SDS011;40536;53.194;5.728;2023-05-17T14:06:01;5.18;;;4.00;;
54641;SDS011;40536;53.194;5.728;2023-05-17T14:08:27;8.90;;;4.43;;
54641;SDS011;40536;53.194;5.728;2023-05-17T14:10:53;13.70;;;5.03;;
54641;SDS011;40536;53.194;5.728;2023-05-17T14:13:19;9.50;;;4.70;;
54641;SDS011;40536;53.194;5.728;2023-05-17T14:15:45;12.63;;;5.50;;
54641;SDS011;40536;53.194;5.728;2023-05-17T14:18:11;9.43;;;4.35;;
54641;SDS011;40536;53.194;5.728;2023-05-17T14:20:36;12.23;;;6.50;;
54641;SDS011;40536;53.194;5.728;2023-05-17T14:23:02;12.32;;;5.53;;
54641;SDS011;40536;53.194;5.728;2023-05-17T14:25:28;14.38;;;5.93;;
54641;SDS011;40536;53.194;5.728;2023-05-17T14:27:54;12.88;;;5.47;;
54641;SDS011;40536;53.194;5.728;2023-05-17T14:30:23;11.00;;;5.07;;
54641;SDS011;40536;53.194;5.728;2023-05-17T14:32:49;14.95;;;6.47;;
54641;SDS011;40536;53.194;5.728;2023-05-17T14:35:15;8.32;;;4.55;;
54641;SDS011;40536;53.194;5.728;2023-05-17T14:37:44;13.85;;;4.72;;
54641;SDS011;40536;53.194;5.728;2023-05-17T14:40:10;12.25;;;5.68;;
54641;SDS011;40536;53.194;5.728;2023-05-17T14:42:36;11.73;;;5.30;;
54641;SDS011;40536;53.194;5.728;2023-05-17T14:45:02;9.52;;;5.50;;
54641;SDS011;40536;53.194;5.728;2023-05-17T14:47:28;8.70;;;4.95;;
54641;SDS011;40536;53.194;5.728;2023-05-17T14:49:54;12.82;;;5.13;;
54641;SDS011;40536;53.194;5.728;2023-05-17T14:52:21;9.07;;;4.65;;
54641;SDS011;40536;53.194;5.728;2023-05-17T14:54:48;8.15;;;5.97;;
54641;SDS011;40536;53.194;5.728;2023-05-17T14:57:14;10.95;;;5.43;;
54641;SDS011;40536;53.194;5.728;2023-05-17T14:59:39;11.30;;;4.97;;
54641;SDS011;40536;53.194;5.728;2023-05-17T15:02:05;8.68;;;5.13;;
54641;SDS011;40536;53.194;5.728;2023-05-17T15:04:31;9.93;;;5.00;;
54641;SDS011;40536;53.194;5.728;2023-05-17T15:06:57;8.30;;;4.78;;
54641;SDS011;40536;53.194;5.728;2023-05-17T15:09:23;6.35;;;4.65;;
54641;SDS011;40536;53.194;5.728;2023-05-17T15:11:49;9.13;;;5.20;;
54641;SDS011;40536;53.194;5.728;2023-05-17T15:14:15;8.98;;;4.90;;